createdAt,value
2022-11-30T00:00:55.732Z,1.85
2022-11-30T00:01:57.784Z,1.85
2022-11-30T00:03:00.447Z,1.87
2022-11-30T00:04:02.611Z,1.90
2022-11-30T00:05:05.192Z,1.97
2022-11-30T00:06:10.200Z,2.01
2022-11-30T00:07:12.125Z,2.15
2022-11-30T00:08:14.665Z,2.11
2022-11-30T00:09:16.372Z,2.10
2022-11-30T00:10:19.428Z,2.06
2022-11-30T00:11:23.761Z,2.02
2022-11-30T00:12:25.838Z,2.02
2022-11-30T00:13:27.615Z,2.07
2022-11-30T00:14:29.639Z,2.08
2022-11-30T00:15:32.468Z,2.06
2022-11-30T00:16:34.901Z,2.05
2022-11-30T00:17:36.934Z,2.05
2022-11-30T00:18:38.883Z,2.10
2022-11-30T00:19:40.904Z,2.12
2022-11-30T00:20:43.744Z,2.14
2022-11-30T00:21:45.731Z,2.06
2022-11-30T00:22:47.614Z,2.04
2022-11-30T00:23:49.440Z,1.99
2022-11-30T00:24:51.176Z,2.00
2022-11-30T00:25:52.920Z,2.05
2022-11-30T00:26:54.904Z,2.12
2022-11-30T00:27:59.811Z,2.15
2022-11-30T00:29:01.822Z,1.89
2022-11-30T00:30:05.212Z,1.81
2022-11-30T00:31:10.542Z,1.86
2022-11-30T00:32:12.440Z,1.84
2022-11-30T00:33:14.105Z,1.90
2022-11-30T00:34:16.065Z,1.96
2022-11-30T00:35:18.878Z,2.00
2022-11-30T00:36:21.938Z,2.02
2022-11-30T00:37:23.992Z,2.10
2022-11-30T00:38:26.124Z,2.03
2022-11-30T00:39:33.880Z,2.04
2022-11-30T00:40:32.141Z,2.01
2022-11-30T00:41:34.040Z,2.03
2022-11-30T00:42:35.930Z,1.98
2022-11-30T00:43:38.351Z,1.93
2022-11-30T00:44:40.649Z,2.00
2022-11-30T00:45:42.762Z,2.06
2022-11-30T00:46:44.918Z,2.11
2022-11-30T00:47:46.536Z,2.16
2022-11-30T00:48:48.359Z,2.10
2022-11-30T00:49:50.072Z,2.07
2022-11-30T00:50:52.294Z,2.08
2022-11-30T00:51:54.182Z,2.12
2022-11-30T00:52:55.843Z,2.15
2022-11-30T00:53:57.464Z,2.16
2022-11-30T00:55:02.790Z,2.11
2022-11-30T00:56:03.449Z,2.08
2022-11-30T00:57:05.197Z,2.01
2022-11-30T00:58:06.989Z,1.98
2022-11-30T00:59:09.870Z,2.00
2022-11-30T01:00:12.482Z,2.01
2022-11-30T01:01:14.455Z,2.04
2022-11-30T01:02:17.428Z,2.07
2022-11-30T01:03:19.394Z,2.03
2022-11-30T01:04:21.491Z,2.06
2022-11-30T01:05:23.311Z,2.08
2022-11-30T01:06:25.141Z,1.97
2022-11-30T01:07:26.785Z,1.97
2022-11-30T01:08:28.487Z,1.98
2022-11-30T01:09:30.431Z,2.04
2022-11-30T01:10:38.309Z,2.08
2022-11-30T01:11:41.235Z,2.17
2022-11-30T01:12:43.203Z,2.22
2022-11-30T01:13:45.110Z,2.25
2022-11-30T01:14:47.384Z,2.33
2022-11-30T01:15:49.675Z,2.38
2022-11-30T01:16:56.051Z,2.40
2022-11-30T01:17:55.805Z,2.43
2022-11-30T01:18:58.375Z,2.42
2022-11-30T01:20:01.122Z,2.45
2022-11-30T01:21:09.116Z,2.43
2022-11-30T01:22:11.156Z,2.43
2022-11-30T01:23:13.158Z,2.37
2022-11-30T01:24:14.877Z,2.34
2022-11-30T01:25:16.614Z,2.29
2022-11-30T01:26:19.390Z,2.31
2022-11-30T01:27:21.171Z,2.34
2022-11-30T01:28:22.825Z,2.34
2022-11-30T01:29:24.569Z,2.36
2022-11-30T01:30:26.765Z,2.36
2022-11-30T01:31:28.970Z,2.39
2022-11-30T01:32:30.766Z,2.41
2022-11-30T01:33:33.021Z,2.42
2022-11-30T01:34:34.682Z,2.14
2022-11-30T01:35:36.347Z,2.03
2022-11-30T01:36:38.268Z,1.68
2022-11-30T01:37:40.564Z,1.67
2022-11-30T01:38:45.839Z,1.34
2022-11-30T01:39:47.693Z,1.36
2022-11-30T01:40:50.756Z,1.43
2022-11-30T01:41:53.869Z,1.51
2022-11-30T01:42:56.039Z,1.56
2022-11-30T01:44:20.119Z,1.61
2022-11-30T01:45:21.817Z,1.67
2022-11-30T01:46:50.046Z,1.78
2022-11-30T01:47:55.886Z,1.77
2022-11-30T01:50:30.394Z,1.73
2022-11-30T01:51:35.887Z,1.64
2022-11-30T01:52:42.081Z,1.58
2022-11-30T01:53:44.322Z,1.46
2022-11-30T01:54:55.616Z,1.21
2022-11-30T01:55:57.440Z,1.13
2022-11-30T01:57:02.956Z,1.15
2022-11-30T01:58:11.305Z,1.21
2022-11-30T01:59:14.278Z,1.20
2022-11-30T02:00:17.666Z,1.15
2022-11-30T02:01:21.473Z,1.09
2022-11-30T02:02:30.160Z,1.04
2022-11-30T02:03:55.815Z,1.11
2022-11-30T02:04:59.050Z,1.23
2022-11-30T02:06:01.000Z,1.41
2022-11-30T02:07:05.287Z,1.54
2022-11-30T02:08:09.425Z,1.65
2022-11-30T02:09:13.882Z,1.59
2022-11-30T02:10:20.110Z,1.62
2022-11-30T02:11:25.207Z,1.69
2022-11-30T02:14:04.956Z,1.85
2022-11-30T02:15:13.552Z,1.81
2022-11-30T02:16:38.836Z,1.70
2022-11-30T02:18:01.736Z,1.75
2022-11-30T02:19:34.082Z,1.84
2022-11-30T02:20:52.370Z,1.87
2022-11-30T02:22:12.923Z,1.88
2022-11-30T02:23:40.828Z,1.84
2022-11-30T02:24:54.247Z,1.75
2022-11-30T02:26:02.813Z,1.77
2022-11-30T02:27:09.262Z,1.75
2022-11-30T02:28:31.420Z,1.68
2022-11-30T02:29:40.091Z,1.64
2022-11-30T02:30:45.709Z,1.59
2022-11-30T02:32:10.925Z,1.44
2022-11-30T02:33:22.247Z,1.48
2022-11-30T02:34:27.692Z,1.55
2022-11-30T02:35:33.158Z,1.59
2022-11-30T02:36:36.560Z,1.59
2022-11-30T02:37:39.663Z,1.62
2022-11-30T02:38:41.933Z,1.57
2022-11-30T02:39:44.447Z,1.53
2022-11-30T02:40:47.576Z,1.49
2022-11-30T02:41:49.549Z,1.48
2022-11-30T02:42:55.276Z,1.48
2022-11-30T02:43:57.244Z,1.43
2022-11-30T02:44:59.503Z,1.40
2022-11-30T02:46:11.175Z,1.40
2022-11-30T02:47:19.561Z,1.07
2022-11-30T02:49:59.667Z,0.93
2022-11-30T02:51:05.212Z,0.85
2022-11-30T02:52:09.742Z,0.78
2022-11-30T02:53:11.594Z,0.53
2022-11-30T02:54:13.403Z,0.59
2022-11-30T02:55:17.828Z,0.63
2022-11-30T02:56:20.245Z,0.72
2022-11-30T02:57:22.107Z,0.73
2022-11-30T02:58:24.077Z,0.68
2022-11-30T02:59:26.121Z,0.68
2022-11-30T03:00:28.034Z,0.85
2022-11-30T03:01:30.093Z,0.77
2022-11-30T03:02:32.673Z,0.81
2022-11-30T03:03:34.712Z,0.82
2022-11-30T03:04:36.542Z,0.74
2022-11-30T03:05:38.341Z,0.67
2022-11-30T03:06:40.279Z,0.71
2022-11-30T03:07:43.104Z,0.79
2022-11-30T03:08:45.007Z,0.87
2022-11-30T03:09:46.714Z,0.96
2022-11-30T03:10:48.714Z,1.01
2022-11-30T03:11:50.630Z,1.02
2022-11-30T03:12:54.499Z,1.08
2022-11-30T03:13:56.460Z,1.07
2022-11-30T03:14:58.184Z,1.11
2022-11-30T03:16:11.544Z,1.07
2022-11-30T03:17:13.595Z,1.07
2022-11-30T03:18:15.300Z,1.11
2022-11-30T03:19:17.157Z,0.87
2022-11-30T03:20:19.335Z,0.81
2022-11-30T03:21:21.113Z,0.90
2022-11-30T03:22:23.714Z,1.01
2022-11-30T03:23:25.519Z,1.10
2022-11-30T03:24:28.503Z,1.23
2022-11-30T03:25:30.453Z,1.30
2022-11-30T03:26:32.450Z,1.33
2022-11-30T03:27:34.957Z,1.36
2022-11-30T03:28:37.412Z,1.38
2022-11-30T03:29:39.359Z,1.33
2022-11-30T03:30:41.544Z,1.10
2022-11-30T03:31:43.998Z,1.00
2022-11-30T03:32:45.777Z,0.92
2022-11-30T03:33:47.670Z,0.60
2022-11-30T03:34:49.952Z,0.60
2022-11-30T03:36:06.374Z,0.59
2022-11-30T03:37:08.309Z,0.63
2022-11-30T03:38:10.427Z,0.59
2022-11-30T03:39:13.552Z,0.63
2022-11-30T03:40:15.845Z,0.53
2022-11-30T03:41:17.828Z,0.39
2022-11-30T03:42:19.788Z,0.46
2022-11-30T03:43:21.538Z,0.55
2022-11-30T03:44:23.568Z,0.74
2022-11-30T03:45:25.397Z,0.83
2022-11-30T03:46:27.463Z,0.92
2022-11-30T03:47:29.760Z,1.00
2022-11-30T03:48:32.129Z,1.08
2022-11-30T03:49:33.849Z,1.11
2022-11-30T03:50:35.666Z,1.16
2022-11-30T03:51:37.524Z,1.02
2022-11-30T03:52:39.185Z,0.92
2022-11-30T03:53:41.330Z,0.89
2022-11-30T03:54:43.336Z,0.82
2022-11-30T03:55:45.481Z,0.89
2022-11-30T03:56:47.365Z,1.00
2022-11-30T03:57:50.038Z,1.05
2022-11-30T03:58:52.030Z,1.14
2022-11-30T03:59:53.776Z,1.22
2022-11-30T04:01:07.929Z,1.34
2022-11-30T04:02:09.807Z,1.39
2022-11-30T04:03:11.682Z,1.53
2022-11-30T04:04:13.875Z,1.53
2022-11-30T04:05:15.757Z,1.59
2022-11-30T04:06:18.289Z,1.61
2022-11-30T04:07:19.991Z,1.35
2022-11-30T04:08:22.071Z,1.16
2022-11-30T04:09:24.396Z,1.16
2022-11-30T04:10:26.980Z,1.11
2022-11-30T04:11:29.157Z,1.19
2022-11-30T04:12:31.007Z,1.17
2022-11-30T04:13:34.204Z,1.24
2022-11-30T04:14:36.217Z,1.21
2022-11-30T04:15:38.161Z,1.18
2022-11-30T06:00:21.569Z,-0.09
2022-11-30T06:02:37.046Z,-0.22
2022-11-30T06:03:38.875Z,-0.34
2022-11-30T06:04:40.524Z,-0.32
2022-11-30T06:05:42.220Z,-0.29
2022-11-30T06:06:44.040Z,-0.27
2022-11-30T06:07:45.763Z,-0.21
2022-11-30T06:08:48.586Z,-0.08
2022-11-30T06:09:50.458Z,-0.02
2022-11-30T06:10:52.687Z,0.11
2022-11-30T06:11:54.552Z,0.14
2022-11-30T06:12:56.238Z,0.09
2022-11-30T06:13:58.046Z,0.06
2022-11-30T06:14:59.770Z,0.10
2022-11-30T06:16:03.518Z,0.07
2022-11-30T06:17:05.906Z,0.17
2022-11-30T06:18:10.994Z,0.28
2022-11-30T06:19:12.952Z,0.43
2022-11-30T06:20:15.309Z,0.44
2022-11-30T06:21:22.598Z,0.51
2022-11-30T06:22:20.780Z,0.65
2022-11-30T06:23:22.423Z,0.69
2022-11-30T06:24:24.232Z,0.74
2022-11-30T06:25:26.902Z,0.68
2022-11-30T06:26:30.813Z,0.54
2022-11-30T06:27:32.639Z,0.39
2022-11-30T06:28:34.683Z,0.42
2022-11-30T06:29:36.412Z,0.41
2022-11-30T06:30:38.418Z,0.40
2022-11-30T06:31:40.433Z,0.48
2022-11-30T06:32:46.253Z,0.48
2022-11-30T06:33:48.100Z,0.47
2022-11-30T06:34:49.920Z,0.40
2022-11-30T06:35:52.061Z,0.28
2022-11-30T06:36:55.813Z,0.14
2022-11-30T06:37:57.654Z,0.18
2022-11-30T06:38:59.412Z,0.18
2022-11-30T06:40:07.013Z,0.34
2022-11-30T06:41:09.096Z,0.42
2022-11-30T06:42:11.053Z,0.56
2022-11-30T06:43:14.067Z,0.65
2022-11-30T06:44:15.959Z,0.60
2022-11-30T06:45:18.271Z,0.64
2022-11-30T06:46:20.327Z,0.52
2022-11-30T06:47:22.693Z,0.28
2022-11-30T06:48:24.501Z,0.10
2022-11-30T06:49:26.123Z,0.13
2022-11-30T06:50:28.007Z,0.22
2022-11-30T06:51:31.036Z,0.29
2022-11-30T06:52:33.096Z,0.29
2022-11-30T06:53:36.212Z,0.30
2022-11-30T06:54:38.178Z,0.22
2022-11-30T06:55:40.499Z,0.11
2022-11-30T06:56:42.480Z,-0.02
2022-11-30T06:57:44.453Z,0.05
2022-11-30T06:58:46.171Z,0.04
2022-11-30T06:59:48.274Z,0.15
2022-11-30T07:00:50.219Z,0.32
2022-11-30T07:01:52.203Z,0.39
2022-11-30T07:02:54.076Z,0.50
2022-11-30T07:03:56.935Z,0.50
2022-11-30T07:04:58.774Z,0.47
2022-11-30T07:06:01.747Z,0.50
2022-11-30T07:07:05.249Z,0.50
2022-11-30T07:08:07.429Z,0.44
2022-11-30T07:09:09.800Z,0.32
2022-11-30T07:10:14.779Z,0.16
2022-11-30T07:11:15.309Z,0.07
2022-11-30T07:12:17.431Z,0.12
2022-11-30T07:13:20.208Z,0.20
2022-11-30T07:14:22.450Z,0.11
2022-11-30T07:15:24.811Z,0.23
2022-11-30T07:16:27.577Z,0.39
2022-11-30T07:17:29.760Z,0.54
2022-11-30T07:18:32.732Z,0.70
2022-11-30T07:19:34.727Z,0.66
2022-11-30T07:20:37.355Z,0.69
2022-11-30T07:21:39.953Z,0.68
2022-11-30T07:22:41.729Z,0.69
2022-11-30T07:23:43.472Z,0.75
2022-11-30T07:24:45.354Z,0.65
2022-11-30T07:25:50.502Z,0.62
2022-11-30T07:26:53.527Z,0.54
2022-11-30T07:27:55.699Z,0.47
2022-11-30T07:29:02.479Z,0.28
2022-11-30T07:30:06.207Z,0.37
2022-11-30T07:31:23.252Z,0.31
2022-11-30T07:32:25.100Z,0.20
2022-11-30T07:33:26.812Z,0.30
2022-11-30T07:34:28.537Z,0.27
2022-11-30T07:35:30.311Z,0.22
2022-11-30T07:36:32.817Z,0.25
2022-11-30T07:37:35.555Z,0.34
2022-11-30T07:38:38.469Z,0.50
2022-11-30T07:39:40.323Z,0.66
2022-11-30T07:40:42.131Z,0.76
2022-11-30T07:41:44.688Z,0.81
2022-11-30T07:42:46.565Z,0.73
2022-11-30T07:43:48.491Z,0.63
2022-11-30T07:44:55.313Z,0.43
2022-11-30T07:45:54.460Z,0.42
2022-11-30T07:46:56.847Z,0.52
2022-11-30T07:47:58.648Z,0.63
2022-11-30T07:49:00.811Z,0.69
2022-11-30T07:50:02.907Z,0.82
2022-11-30T07:52:20.285Z,0.77
2022-11-30T07:53:22.030Z,0.44
2022-11-30T07:54:23.851Z,0.44
2022-11-30T07:55:26.027Z,0.56
2022-11-30T07:56:28.501Z,0.58
2022-11-30T07:57:30.395Z,0.30
2022-11-30T07:58:33.554Z,0.33
2022-11-30T07:59:35.561Z,0.48
2022-11-30T08:00:38.236Z,0.61
2022-11-30T08:01:40.250Z,0.72
2022-11-30T08:02:42.118Z,0.70
2022-11-30T08:03:44.729Z,0.52
2022-11-30T08:04:46.860Z,0.55
2022-11-30T08:05:49.082Z,0.60
2022-11-30T08:06:53.469Z,0.60
2022-11-30T08:07:55.526Z,0.70
2022-11-30T08:09:01.309Z,0.67
2022-11-30T08:10:05.182Z,0.69
2022-11-30T08:11:09.596Z,0.64
2022-11-30T08:12:11.666Z,0.46
2022-11-30T08:13:13.366Z,0.51
2022-11-30T08:14:15.236Z,0.42
2022-11-30T08:15:20.228Z,0.45
2022-11-30T08:16:23.995Z,0.37
2022-11-30T08:17:25.996Z,0.40
2022-11-30T08:18:27.817Z,0.42
2022-11-30T08:19:30.015Z,0.48
2022-11-30T08:20:32.082Z,0.63
2022-11-30T08:21:34.112Z,0.79
2022-11-30T08:22:35.798Z,0.88
2022-11-30T08:23:44.164Z,0.97
2022-11-30T08:24:48.075Z,1.04
2022-11-30T08:25:50.199Z,0.70
2022-11-30T08:26:52.307Z,0.56
2022-11-30T08:27:54.019Z,0.54
2022-11-30T08:28:57.338Z,0.30
2022-11-30T08:29:59.459Z,0.25
2022-11-30T08:31:05.394Z,0.30
2022-11-30T08:32:07.757Z,0.37
2022-11-30T08:33:10.375Z,0.44
2022-11-30T08:34:13.583Z,0.36
2022-11-30T08:35:15.947Z,0.38
2022-11-30T08:36:20.832Z,0.40
2022-11-30T08:37:22.752Z,0.57
2022-11-30T08:38:24.463Z,0.68
2022-11-30T08:39:26.166Z,0.47
2022-11-30T08:40:28.183Z,0.52
2022-11-30T08:41:31.427Z,0.63
2022-11-30T08:42:33.394Z,0.77
2022-11-30T08:43:35.490Z,0.92
2022-11-30T08:44:37.124Z,1.04
2022-11-30T08:45:39.447Z,1.01
2022-11-30T08:46:56.568Z,0.88
2022-11-30T08:47:45.002Z,0.65
2022-11-30T08:48:47.646Z,0.44
2022-11-30T08:49:49.339Z,0.29
2022-11-30T08:50:51.255Z,0.21
2022-11-30T08:53:06.136Z,0.41
2022-11-30T08:54:04.013Z,0.61
2022-11-30T08:55:06.783Z,0.77
2022-11-30T08:56:12.132Z,0.79
2022-11-30T08:57:16.550Z,0.77
2022-11-30T08:58:18.487Z,0.75
2022-11-30T08:59:21.436Z,0.86
2022-11-30T09:00:23.597Z,1.01
2022-11-30T09:01:29.830Z,0.98
2022-11-30T09:02:31.136Z,0.95
2022-11-30T09:03:33.262Z,0.88
2022-11-30T09:04:35.950Z,0.89
2022-11-30T09:05:37.816Z,0.80
2022-11-30T09:06:40.702Z,0.80
2022-11-30T09:07:42.569Z,0.68
2022-11-30T09:08:46.627Z,0.70
2022-11-30T09:09:48.596Z,0.59
2022-11-30T09:10:50.712Z,0.68
2022-11-30T09:11:52.572Z,0.74
2022-11-30T09:12:54.823Z,0.56
2022-11-30T09:13:58.621Z,0.43
2022-11-30T09:15:01.263Z,0.23
2022-11-30T09:16:04.814Z,0.28
2022-11-30T09:17:07.052Z,0.36
2022-11-30T09:18:09.424Z,0.39
2022-11-30T09:19:11.407Z,0.41
2022-11-30T09:20:14.188Z,0.24
2022-11-30T09:21:19.847Z,0.12
2022-11-30T09:22:22.081Z,0.03
2022-11-30T09:23:24.017Z,-0.06
2022-11-30T09:24:26.211Z,-0.02
2022-11-30T09:25:28.069Z,0.08
2022-11-30T09:26:30.946Z,0.02
2022-11-30T09:27:34.314Z,0.11
2022-11-30T09:28:37.417Z,0.13
2022-11-30T09:29:39.682Z,0.08
2022-11-30T09:30:41.606Z,-0.16
2022-11-30T09:31:43.457Z,0.07
2022-11-30T09:32:45.121Z,0.07
2022-11-30T09:33:47.537Z,0.15
2022-11-30T09:34:50.828Z,0.17
2022-11-30T09:36:01.416Z,0.19
2022-11-30T09:37:04.379Z,0.20
2022-11-30T09:38:06.513Z,0.14
2022-11-30T09:39:10.641Z,0.20
2022-11-30T09:40:14.527Z,0.32
2022-11-30T09:41:35.625Z,0.38
2022-11-30T09:42:47.281Z,0.40
2022-11-30T09:44:05.050Z,0.38
2022-11-30T09:45:17.257Z,0.07
2022-11-30T09:46:22.991Z,0.08
2022-11-30T09:47:50.763Z,-0.01
2022-11-30T09:49:25.248Z,-0.08
2022-11-30T09:50:31.535Z,-0.15
2022-11-30T09:51:48.662Z,-0.07
2022-11-30T09:52:57.343Z,-0.19
2022-11-30T09:54:03.237Z,-0.34
2022-11-30T09:55:08.821Z,-0.33
2022-11-30T09:56:20.477Z,-0.33
2022-11-30T09:57:31.527Z,-0.24
2022-11-30T09:58:46.179Z,-0.19
2022-11-30T09:59:54.482Z,-0.14
2022-11-30T10:00:56.877Z,-0.07
2022-11-30T10:03:14.022Z,0.20
2022-11-30T10:04:29.114Z,0.18
2022-11-30T10:05:49.649Z,0.28
2022-11-30T10:07:29.807Z,0.34
2022-11-30T10:09:05.804Z,0.14
2022-11-30T10:10:35.447Z,0.09
2022-11-30T10:11:47.232Z,0.12
2022-11-30T14:18:27.637Z,-0.65
2022-11-30T14:19:30.076Z,-0.77
2022-11-30T14:20:38.132Z,-0.76
2022-11-30T14:21:43.515Z,-0.72
2022-11-30T14:22:48.397Z,-0.66
2022-11-30T14:24:07.062Z,-0.62
2022-11-30T14:25:17.733Z,-0.58
2022-11-30T14:26:25.839Z,-0.51
2022-11-30T14:27:29.110Z,-0.43
2022-11-30T14:28:37.520Z,-0.43
2022-11-30T14:29:39.619Z,-0.36
2022-11-30T14:30:43.725Z,-0.34
2022-11-30T14:31:53.492Z,-0.28
2022-11-30T14:33:02.030Z,-0.23
2022-11-30T14:34:31.684Z,-0.10
2022-11-30T14:35:34.682Z,-0.08
2022-11-30T14:36:50.240Z,-0.08
2022-11-30T14:38:02.480Z,0.01
2022-11-30T14:39:05.112Z,0.08
2022-11-30T14:40:15.651Z,0.18
2022-11-30T14:41:27.672Z,0.14
2022-11-30T14:42:34.572Z,0.08
2022-11-30T14:43:36.554Z,-0.04
2022-11-30T14:44:40.168Z,-0.07
2022-11-30T14:45:42.202Z,-0.06
2022-11-30T14:46:44.122Z,-0.07
2022-11-30T14:47:49.813Z,-0.10
2022-11-30T14:49:10.556Z,-0.11
2022-11-30T14:50:16.505Z,-0.13
2022-11-30T14:51:19.730Z,-0.15
2022-11-30T14:52:46.683Z,-0.20
2022-11-30T14:54:09.599Z,-0.24
2022-11-30T14:55:24.353Z,-0.26
2022-11-30T14:56:32.839Z,-0.30
2022-11-30T14:57:50.177Z,-0.35
2022-11-30T14:59:32.057Z,-0.42
2022-11-30T15:00:40.913Z,-0.43
2022-11-30T15:01:44.147Z,-0.45
2022-11-30T15:02:49.470Z,-0.46
2022-11-30T15:03:54.800Z,-0.50
2022-11-30T15:04:59.328Z,-0.51
2022-11-30T15:06:05.168Z,-0.49
2022-11-30T15:07:10.911Z,-0.55
2022-11-30T15:08:16.334Z,-0.52
2022-11-30T15:09:21.651Z,-0.46
2022-11-30T15:10:31.418Z,-0.49
2022-11-30T15:11:33.398Z,-0.45
2022-11-30T15:12:37.519Z,-0.39
2022-11-30T15:13:43.095Z,-0.37
2022-11-30T15:15:20.354Z,-0.31
2022-11-30T15:16:28.156Z,-0.28
2022-11-30T15:17:30.974Z,-0.27
2022-11-30T15:18:33.727Z,-0.34
2022-11-30T15:19:35.522Z,-0.31
2022-11-30T15:20:41.019Z,-0.43
2022-11-30T15:21:45.902Z,-0.45
2022-11-30T15:22:47.705Z,-0.40
2022-11-30T15:23:52.618Z,-0.41
2022-11-30T15:24:54.712Z,-0.55
2022-11-30T15:26:06.304Z,-0.54
2022-11-30T15:27:11.833Z,-0.62
2022-11-30T15:28:23.867Z,-0.60
2022-11-30T15:29:32.585Z,-0.61
2022-11-30T15:30:38.709Z,-0.56
2022-11-30T15:31:44.275Z,-0.51
2022-11-30T15:32:49.985Z,-0.54
2022-11-30T15:33:52.136Z,-0.53
2022-11-30T15:34:57.801Z,-0.43
2022-11-30T15:36:32.020Z,-0.36
2022-11-30T15:37:06.940Z,-0.36
2022-11-30T15:38:09.999Z,-0.42
2022-11-30T15:39:21.514Z,-0.49
2022-11-30T15:40:34.213Z,-0.62
2022-11-30T15:41:36.937Z,-0.61
2022-11-30T15:42:40.984Z,-0.54
2022-11-30T15:43:44.911Z,-0.50
2022-11-30T15:44:46.930Z,-0.45
2022-11-30T15:45:58.485Z,-0.44
2022-11-30T15:47:02.453Z,-0.33
2022-11-30T15:48:09.592Z,-0.37
2022-11-30T15:49:22.050Z,-0.27
2022-11-30T15:50:31.065Z,-0.24
2022-11-30T15:51:38.683Z,-0.29
2022-11-30T15:52:43.909Z,-0.43
2022-11-30T15:53:50.958Z,-0.49
2022-11-30T15:54:55.404Z,-0.53
2022-11-30T15:56:04.662Z,-0.54
2022-11-30T15:57:09.199Z,-0.52
2022-11-30T15:58:31.772Z,-0.52
2022-11-30T15:59:33.828Z,-0.56
2022-11-30T16:00:36.177Z,-0.50
2022-11-30T16:01:55.240Z,-0.42
2022-11-30T16:03:12.599Z,-0.38
2022-11-30T16:04:15.518Z,-0.36
2022-11-30T16:05:23.147Z,-0.43
2022-11-30T16:06:28.898Z,-0.40
2022-11-30T16:07:37.887Z,-0.38
2022-11-30T16:08:43.455Z,-0.35
2022-11-30T16:09:45.644Z,-0.28
2022-11-30T16:10:48.011Z,-0.19
2022-11-30T16:11:53.559Z,-0.16
2022-11-30T16:12:55.935Z,-0.10
2022-11-30T16:13:57.626Z,-0.10
2022-11-30T16:14:59.717Z,-0.05
2022-11-30T16:16:02.070Z,-0.02
2022-11-30T16:17:08.932Z,-0.03
2022-11-30T16:18:14.708Z,-0.02
2022-11-30T16:19:17.735Z,-0.02
2022-11-30T16:20:19.885Z,-0.09
2022-11-30T16:21:22.400Z,-0.11
2022-11-30T16:22:24.397Z,-0.10
2022-11-30T16:23:28.151Z,-0.15
2022-11-30T16:24:30.518Z,-0.13
2022-11-30T16:25:32.856Z,-0.10
2022-11-30T16:26:51.401Z,-0.12
2022-11-30T16:27:40.814Z,-0.13
2022-11-30T16:28:42.878Z,-0.13
2022-11-30T16:29:51.823Z,-0.09
2022-11-30T16:30:51.295Z,-0.01
2022-11-30T16:31:54.317Z,-0.11
2022-11-30T16:32:56.382Z,-0.07
2022-11-30T16:33:58.235Z,-0.03
2022-11-30T16:35:01.007Z,0.05
2022-11-30T16:36:08.930Z,-0.06
2022-11-30T16:37:11.076Z,-0.10
2022-11-30T16:38:12.905Z,-0.06
2022-11-30T16:39:14.651Z,-0.13
2022-11-30T16:40:18.372Z,-0.17
2022-11-30T16:41:23.040Z,-0.13
2022-11-30T16:42:24.951Z,-0.19
2022-11-30T16:43:26.817Z,-0.21
2022-11-30T16:44:29.086Z,-0.18
2022-11-30T16:45:36.546Z,-0.28
2022-11-30T16:46:39.078Z,-0.18
2022-11-30T16:47:43.052Z,-0.11
2022-11-30T16:48:45.686Z,-0.22
2022-11-30T16:49:47.893Z,-0.12
2022-11-30T16:50:51.207Z,-0.13
2022-11-30T16:51:53.606Z,-0.11
2022-11-30T16:52:55.390Z,-0.07
2022-11-30T16:53:57.903Z,-0.11
2022-11-30T16:55:00.810Z,-0.10
2022-11-30T16:56:03.382Z,-0.09
2022-11-30T16:57:05.186Z,-0.07
2022-11-30T16:58:08.719Z,-0.03
2022-11-30T16:59:16.416Z,0.00
2022-11-30T17:00:19.217Z,-0.07
2022-11-30T17:01:35.185Z,0.01
2022-11-30T17:02:39.690Z,-0.04
2022-11-30T17:03:45.217Z,0.00
2022-11-30T17:04:49.055Z,0.01
2022-11-30T17:05:51.442Z,-0.02
2022-11-30T17:07:00.446Z,-0.10
2022-11-30T17:07:58.506Z,-0.12
2022-11-30T17:09:00.283Z,0.00
2022-11-30T17:13:22.935Z,0.23
2022-11-30T17:14:26.915Z,0.08
2022-11-30T17:15:29.872Z,-0.05
2022-11-30T17:16:32.886Z,-0.12
2022-11-30T17:17:35.065Z,-0.12
2022-11-30T17:18:37.084Z,-0.01
2022-11-30T17:19:39.557Z,0.06
2022-11-30T17:20:42.936Z,0.12
2022-11-30T17:21:46.262Z,0.12
2022-11-30T17:22:48.220Z,-0.02
2022-11-30T17:23:50.671Z,-0.17
2022-11-30T17:24:52.970Z,-0.23
2022-11-30T17:25:55.348Z,-0.21
2022-11-30T17:26:57.267Z,-0.18
2022-11-30T17:27:59.116Z,-0.23
2022-11-30T17:29:02.075Z,-0.11
2022-11-30T17:30:05.764Z,0.08
2022-11-30T17:31:11.470Z,0.20
2022-11-30T17:32:13.870Z,0.31
2022-11-30T17:33:15.914Z,0.28
2022-11-30T17:34:18.123Z,0.37
2022-11-30T17:35:20.394Z,0.42
2022-11-30T17:36:22.290Z,0.37
2022-11-30T17:37:24.831Z,-0.02
2022-11-30T17:38:27.240Z,-0.15
2022-11-30T17:40:58.584Z,-0.35
2022-11-30T17:44:03.981Z,-0.35
2022-11-30T17:45:06.724Z,-0.27
2022-11-30T17:46:12.048Z,-0.18
2022-11-30T17:48:15.482Z,-0.19
2022-11-30T17:49:17.979Z,-0.31
2022-11-30T17:50:20.926Z,-0.39
2022-11-30T17:53:26.543Z,-0.20
2022-11-30T17:54:28.637Z,-0.13
2022-11-30T17:56:34.037Z,-0.33
2022-11-30T17:57:36.923Z,-0.29
2022-11-30T17:58:43.855Z,-0.25
2022-11-30T18:00:49.557Z,-0.22
2022-11-30T18:02:54.691Z,-0.23
2022-11-30T18:03:57.945Z,-0.14
2022-11-30T18:05:00.706Z,-0.17
2022-11-30T18:06:04.214Z,-0.24
2022-11-30T18:08:08.418Z,-0.05
2022-11-30T18:10:14.328Z,-0.09
2022-11-30T18:13:27.938Z,-0.20
2022-11-30T18:14:29.810Z,-0.17
2022-11-30T18:15:32.025Z,-0.09
2022-11-30T18:16:36.672Z,-0.13
2022-11-30T18:17:38.676Z,-0.18
2022-11-30T18:18:47.309Z,-0.11
2022-11-30T18:19:46.826Z,-0.06
2022-11-30T18:20:49.648Z,0.09
